Time;durP1;ratioP1;P1;durP2;ratioP2;P2;SDS_P1;SDS_P2;PMS_P1;PMS_P2;Temp;Humidity;BMP_temperature;BMP_pressure;BME280_temperature;BME280_humidity;BME280_pressure;Samples;Min_cycle;Max_cycle;Signal;HPM_P1;HPM_P2
2022/11/08 00:01:53;;;;;;;58.22;29.23;;;;;;;11.24;71.89;94386.34;5064613;28;20024;-75
2022/11/08 00:04:19;;;;;;;59.35;27.10;;;;;;;11.23;72.19;94375.97;5064643;28;20016;-75
2022/11/08 00:14:57;;;;;;;56.15;26.27;;;;;;;11.19;72.06;94383.00;5064417;28;20262;-75
2022/11/08 00:17:24;;;;;;;51.20;28.00;;;;;;;11.17;72.12;94375.31;5064386;28;20242;-75
2022/11/08 00:19:50;;;;;;;54.33;27.60;;;;;;;11.09;72.22;94375.25;5064274;28;20028;-74
2022/11/08 00:22:16;;;;;;;50.33;27.73;;;;;;;11.04;72.46;94374.28;5064149;28;20088;-74
2022/11/08 00:24:42;;;;;;;63.38;29.25;;;;;;;10.95;72.77;94376.09;5063020;28;20315;-74
2022/11/08 00:27:12;;;;;;;58.25;29.65;;;;;;;10.91;73.15;94371.66;5064049;28;20028;-74
2022/11/08 00:29:37;;;;;;;52.20;28.30;;;;;;;10.89;73.23;94377.31;5064026;28;20024;-74
2022/11/08 00:32:05;;;;;;;59.83;28.80;;;;;;;10.91;73.20;94377.00;5064056;28;20059;-75
2022/11/08 00:34:32;;;;;;;57.60;28.23;;;;;;;10.93;73.06;94382.81;5064183;28;20025;-75
2022/11/08 00:36:57;;;;;;;57.05;27.80;;;;;;;10.94;73.24;94379.06;5063793;28;20310;-75
2022/11/08 00:39:23;;;;;;;58.10;28.58;;;;;;;10.95;73.16;94381.44;5063946;28;20048;-75
2022/11/08 00:41:51;;;;;;;54.97;28.77;;;;;;;10.97;73.11;94381.94;5063858;28;20021;-75
2022/11/08 00:44:17;;;;;;;55.95;27.52;;;;;;;10.99;72.90;94371.75;5063872;28;20025;-75
2022/11/08 00:46:42;;;;;;;54.05;28.38;;;;;;;10.99;72.88;94381.59;5063689;28;20024;-75
2022/11/08 00:49:08;;;;;;;61.20;27.73;;;;;;;10.99;72.63;94374.41;5063773;28;20032;-75
2022/11/08 00:51:34;;;;;;;64.22;29.45;;;;;;;10.96;72.89;94383.00;5063747;28;20025;-75
2022/11/08 00:53:59;;;;;;;58.53;28.80;;;;;;;10.98;72.60;94375.47;5063410;28;20028;-75
2022/11/08 00:56:25;;;;;;;49.75;26.30;;;;;;;10.98;72.63;94380.81;5063426;28;20228;-75
2022/11/08 00:58:51;;;;;;;54.85;26.92;;;;;;;10.96;72.71;94377.66;5063581;28;20289;-75
2022/11/08 01:01:19;;;;;;;53.15;27.35;;;;;;;10.85;73.04;94381.66;5063567;28;20038;-75
2022/11/08 01:03:45;;;;;;;58.38;27.35;;;;;;;10.81;73.27;94376.16;5063302;28;20025;-75
2022/11/08 01:06:13;;;;;;;61.55;27.73;;;;;;;10.74;73.70;94380.31;5063182;28;20432;-75
2022/11/08 01:08:39;;;;;;;56.25;28.48;;;;;;;10.68;73.92;94371.63;5063365;28;20025;-75
2022/11/08 01:11:11;;;;;;;51.85;26.23;;;;;;;10.60;74.46;94375.81;5063225;28;20258;-75
2022/11/08 01:13:37;;;;;;;54.17;27.60;;;;;;;10.56;74.90;94368.69;5063351;28;20024;-76
2022/11/08 01:16:25;;;;;;;49.38;26.15;;;;;;;10.51;75.12;94369.59;5062927;28;20100;-75
2022/11/08 01:18:54;;;;;;;48.58;26.50;;;;;;;10.53;75.39;94364.75;5062931;28;20051;-75
2022/11/08 01:21:20;;;;;;;56.35;27.73;;;;;;;10.56;75.24;94371.38;5063233;28;20028;-75
2022/11/08 01:23:46;;;;;;;52.03;27.52;;;;;;;10.59;75.16;94374.22;5062996;28;20025;-76
2022/11/08 01:26:17;;;;;;;52.30;26.77;;;;;;;10.64;74.87;94370.66;5062982;28;20261;-76
2022/11/08 01:28:42;;;;;;;50.10;25.33;;;;;;;10.64;74.90;94366.13;5062955;28;20033;-76
2022/11/08 01:31:14;;;;;;;48.20;26.98;;;;;;;10.68;74.91;94365.50;5061820;28;20048;-76
2022/11/08 01:33:40;;;;;;;50.75;26.88;;;;;;;10.64;75.15;94375.97;5062873;28;20032;-76
2022/11/08 01:36:07;;;;;;;50.85;27.10;;;;;;;10.69;74.98;94372.44;5062830;28;20032;-76
2022/11/08 01:38:34;;;;;;;49.80;27.92;;;;;;;10.71;75.07;94370.25;5062846;28;20021;-76
2022/11/08 01:41:00;;;;;;;56.25;29.40;;;;;;;10.75;75.20;94371.25;5062762;28;20032;-76
2022/11/08 01:43:28;;;;;;;56.90;28.98;;;;;;;10.77;75.06;94374.38;5062857;28;20033;-76
2022/11/08 01:46:18;;;;;;;60.20;28.63;;;;;;;10.81;74.90;94375.38;5062611;28;20032;-76
2022/11/08 01:48:59;;;;;;;48.35;26.65;;;;;;;10.79;74.91;94361.53;5062605;28;20029;-76
2022/11/08 01:51:50;;;;;;;60.97;28.55;;;;;;;10.74;74.99;94365.09;5062602;28;20039;-75
2022/11/08 01:54:27;;;;;;;57.78;26.92;;;;;;;10.75;75.33;94368.56;5067041;28;20043;-75
2022/11/08 01:56:54;;;;;;;50.88;26.83;;;;;;;10.75;75.57;94372.03;5062260;28;20021;-75
2022/11/08 01:59:20;;;;;;;56.55;27.77;;;;;;;10.78;75.50;94374.06;5062872;28;20214;-75
2022/11/08 02:01:46;;;;;;;60.35;28.73;;;;;;;10.82;75.22;94371.59;5062644;28;20074;-75
2022/11/08 02:04:14;;;;;;;56.22;28.98;;;;;;;10.80;75.33;94368.44;5062616;28;20029;-75
2022/11/08 02:06:41;;;;;;;49.13;28.52;;;;;;;10.79;75.46;94375.66;5062482;28;20039;-76
2022/11/08 02:09:09;;;;;;;54.25;28.98;;;;;;;10.75;75.47;94368.56;5062490;28;20029;-75
2022/11/08 02:11:35;;;;;;;56.00;29.48;;;;;;;10.74;75.67;94372.31;5062567;28;20020;-76
2022/11/08 02:14:03;;;;;;;55.22;28.75;;;;;;;10.74;75.80;94380.31;5062402;28;20056;-75
2022/11/08 02:16:28;;;;;;;52.97;28.83;;;;;;;10.72;75.91;94383.28;5062544;28;20192;-77
2022/11/08 02:18:53;;;;;;;55.58;30.73;;;;;;;10.67;75.96;94374.63;5062301;28;20070;-75
2022/11/08 02:21:22;;;;;;;51.38;26.98;;;;;;;10.63;76.11;94369.88;5062728;28;20063;-76
2022/11/08 02:23:53;;;;;;;56.25;27.92;;;;;;;10.60;76.23;94383.81;5062758;28;20263;-75
2022/11/08 02:26:30;;;;;;;53.35;28.70;;;;;;;10.56;76.47;94374.84;5062862;28;20056;-76
2022/11/08 02:28:56;;;;;;;56.15;29.00;;;;;;;10.54;76.58;94379.69;5062430;28;20025;-76
2022/11/08 02:31:22;;;;;;;55.38;27.75;;;;;;;10.44;77.68;94385.19;5066229;28;20068;-76
2022/11/08 02:33:48;;;;;;;55.05;29.27;;;;;;;10.39;77.80;94380.78;5066493;28;20025;-76
2022/11/08 02:36:20;;;;;;;63.72;29.58;;;;;;;10.32;78.47;94384.94;5066290;28;20020;-76
2022/11/08 02:38:50;;;;;;;58.38;28.90;;;;;;;10.20;79.18;94383.53;5065883;28;20021;-76
2022/11/08 02:41:15;;;;;;;66.03;29.15;;;;;;;10.18;79.45;94385.72;5066333;28;20071;-76
2022/11/08 02:43:40;;;;;;;56.33;28.95;;;;;;;10.21;79.60;94369.13;5066111;28;20249;-76
2022/11/08 02:46:06;;;;;;;64.20;30.45;;;;;;;10.20;79.76;94383.53;5065933;28;20025;-76
2022/11/08 02:48:31;;;;;;;49.67;27.35;;;;;;;10.22;79.82;94377.91;5065759;28;20017;-76
2022/11/08 02:50:57;;;;;;;63.63;31.35;;;;;;;10.31;79.92;94372.69;5064834;28;20024;-76
2022/11/08 02:53:22;;;;;;;60.42;31.13;;;;;;;10.40;79.57;94365.56;5065981;28;20012;-76
2022/11/08 02:55:48;;;;;;;54.83;29.90;;;;;;;10.49;79.45;94366.44;5066052;28;20020;-76
2022/11/08 02:58:13;;;;;;;59.53;31.77;;;;;;;10.56;79.22;94360.69;5065636;28;20029;-76
2022/11/08 03:00:39;;;;;;;56.72;30.63;;;;;;;10.62;78.67;94362.16;5065804;28;20021;-76
2022/11/08 03:03:05;;;;;;;59.75;30.58;;;;;;;10.70;78.40;94366.78;5065616;28;20131;-76
2022/11/08 03:05:30;;;;;;;65.45;29.92;;;;;;;10.78;78.02;94370.63;5065618;28;20084;-76
2022/11/08 03:07:56;;;;;;;54.85;29.70;;;;;;;10.85;77.65;94376.34;5065864;28;20013;-76
2022/11/08 03:10:24;;;;;;;59.97;30.95;;;;;;;10.91;77.37;94364.47;5065654;28;20074;-76
2022/11/08 03:13:01;;;;;;;59.72;30.08;;;;;;;10.98;77.04;94374.69;5065680;28;20096;-76
2022/11/08 03:15:27;;;;;;;54.22;28.42;;;;;;;11.00;76.90;94367.97;5065577;28;20024;-76
2022/11/08 03:17:54;;;;;;;53.65;27.48;;;;;;;11.07;76.68;94374.75;5065531;28;20017;-76
2022/11/08 03:20:20;;;;;;;47.20;28.08;;;;;;;11.12;76.36;94380.78;5065424;28;20047;-76
2022/11/08 03:22:46;;;;;;;50.45;29.65;;;;;;;11.15;76.28;94374.81;5065418;28;20021;-76
2022/11/08 03:25:11;;;;;;;51.47;27.55;;;;;;;11.19;75.95;94381.16;5065182;28;20029;-77
2022/11/08 03:27:37;;;;;;;59.15;30.25;;;;;;;11.23;75.89;94378.63;5065210;28;20048;-76
2022/11/08 03:30:05;;;;;;;56.13;28.35;;;;;;;11.26;75.68;94371.94;5065169;28;20029;-76
2022/11/08 03:32:30;;;;;;;54.22;27.27;;;;;;;11.27;75.53;94382.28;5065239;28;20029;-76
2022/11/08 03:34:58;;;;;;;63.90;29.45;;;;;;;11.29;75.06;94379.31;5065114;28;20024;-76
2022/11/08 03:37:24;;;;;;;47.10;27.92;;;;;;;11.30;75.03;94384.34;5064935;28;20012;-77
2022/11/08 03:39:49;;;;;;;53.42;27.52;;;;;;;11.29;74.78;94390.75;5064986;28;20020;-76
2022/11/08 03:42:15;;;;;;;49.75;28.73;;;;;;;11.24;75.24;94390.91;5064799;28;20036;-76
2022/11/08 03:44:40;;;;;;;49.55;27.27;;;;;;;11.21;75.54;94394.97;5065059;28;20052;-76
2022/11/08 03:47:06;;;;;;;51.40;27.55;;;;;;;11.22;75.34;94395.75;5064862;28;20020;-76
2022/11/08 03:49:31;;;;;;;51.75;27.90;;;;;;;11.19;75.55;94391.00;5064601;28;20230;-76
2022/11/08 03:51:56;;;;;;;53.75;28.50;;;;;;;11.19;75.56;94399.00;5064698;28;20033;-76
2022/11/08 03:54:22;;;;;;;59.15;29.75;;;;;;;11.19;75.50;94385.66;5064860;28;20060;-77
2022/11/08 03:56:47;;;;;;;49.97;30.02;;;;;;;11.20;75.55;94382.72;5064782;28;20215;-76
2022/11/08 03:59:13;;;;;;;55.75;29.20;;;;;;;11.21;75.80;94388.81;5064669;28;20033;-76
2022/11/08 04:01:38;;;;;;;59.30;29.42;;;;;;;11.24;76.07;94382.91;5064638;28;20036;-77
2022/11/08 04:04:05;;;;;;;52.05;29.25;;;;;;;11.21;76.64;94391.50;5064501;28;20036;-77
2022/11/08 04:06:30;;;;;;;49.15;28.38;;;;;;;11.18;77.08;94384.91;5064660;28;20024;-77
2022/11/08 04:08:56;;;;;;;54.88;28.33;;;;;;;11.16;77.54;94381.75;5064504;28;20228;-77
2022/11/08 04:16:51;;;;;;;55.38;29.48;;;;;;;11.18;78.56;94381.44;5064361;28;20385;-76
2022/11/08 04:22:01;;;;;;;54.97;29.20;;;;;;;11.26;78.79;94386.06;5064238;28;20032;-77
2022/11/08 04:24:29;;;;;;;54.10;29.30;;;;;;;11.30;79.11;94381.69;5064172;28;20318;-76
2022/11/08 04:26:55;;;;;;;54.28;28.52;;;;;;;11.34;79.05;94379.97;5063937;28;20027;-76
2022/11/08 04:29:20;;;;;;;47.97;27.23;;;;;;;11.37;79.13;94370.56;5064320;28;20025;-76
2022/11/08 04:31:45;;;;;;;50.15;29.50;;;;;;;11.39;79.04;94379.06;5064162;28;20066;-77
2022/11/08 04:34:11;;;;;;;54.13;30.50;;;;;;;11.43;79.08;94375.47;5064024;28;20025;-77
2022/11/08 04:36:36;;;;;;;57.55;29.42;;;;;;;11.44;79.07;94381.63;5064030;28;20028;-77
2022/11/08 04:39:02;;;;;;;58.22;30.23;;;;;;;11.43;79.21;94374.69;5063953;28;20058;-76
2022/11/08 04:41:28;;;;;;;58.65;30.30;;;;;;;11.48;78.88;94379.09;5063572;28;20059;-76
2022/11/08 04:43:55;;;;;;;54.67;28.73;;;;;;;11.47;79.03;94378.31;5063902;28;20021;-76
2022/11/08 04:46:23;;;;;;;66.95;31.88;;;;;;;11.45;78.80;94373.28;5064042;28;20257;-76
2022/11/08 04:48:53;;;;;;;46.85;27.27;;;;;;;11.48;78.45;94374.56;5063881;28;20223;-75
2022/11/08 04:51:30;;;;;;;55.58;29.10;;;;;;;11.49;78.57;94372.69;5063771;28;20107;-75
2022/11/08 04:54:00;;;;;;;59.42;29.08;;;;;;;11.46;78.26;94374.09;5062972;28;20063;-76
2022/11/08 04:56:27;;;;;;;53.28;29.38;;;;;;;11.39;78.06;94379.84;5063507;28;20035;-76
2022/11/08 04:58:58;;;;;;;62.50;29.48;;;;;;;11.42;78.15;94379.25;5063429;28;20283;-76
2022/11/08 05:01:26;;;;;;;53.85;28.13;;;;;;;11.33;77.91;94394.41;5063364;28;20021;-76
2022/11/08 05:03:52;;;;;;;58.40;27.20;;;;;;;11.26;78.26;94395.94;5063379;28;20021;-76
2022/11/08 05:06:28;;;;;;;51.72;27.98;;;;;;;11.14;78.92;94402.59;5063569;28;20020;-76
2022/11/08 05:08:56;;;;;;;56.83;27.92;;;;;;;11.09;79.28;94402.69;5063374;28;20025;-75
2022/11/08 05:11:23;;;;;;;59.75;30.88;;;;;;;11.04;79.78;94392.94;5063221;28;20062;-76
2022/11/08 05:13:50;;;;;;;56.75;30.85;;;;;;;11.00;80.26;94389.31;5063442;28;20311;-76
2022/11/08 05:16:16;;;;;;;55.67;30.80;;;;;;;11.06;80.61;94386.53;5063051;28;20021;-76
2022/11/08 05:18:42;;;;;;;62.17;31.23;;;;;;;11.07;80.61;94394.22;5063076;28;20021;-77
2022/11/08 05:23:55;;;;;;;60.90;28.58;;;;;;;11.16;80.19;94396.97;5063064;28;20059;-76
2022/11/08 05:26:21;;;;;;;53.95;30.17;;;;;;;11.18;79.98;94395.56;5062943;28;20344;-76
2022/11/08 05:28:47;;;;;;;51.13;28.65;;;;;;;11.23;79.88;94386.63;5063040;28;20025;-76
2022/11/08 05:31:12;;;;;;;54.58;28.77;;;;;;;11.27;80.01;94400.94;5061721;28;20033;-76
2022/11/08 05:33:38;;;;;;;54.30;29.67;;;;;;;11.33;79.84;94391.72;5062821;28;20036;-77
2022/11/08 05:36:12;;;;;;;53.42;29.77;;;;;;;11.35;79.99;94397.56;5062966;28;20021;-76
2022/11/08 05:38:38;;;;;;;56.30;30.08;;;;;;;11.41;79.83;94398.22;5062753;28;20024;-76
2022/11/08 05:41:16;;;;;;;62.42;30.92;;;;;;;11.43;79.69;94391.47;5062730;28;20066;-75
2022/11/08 05:43:44;;;;;;;58.63;30.75;;;;;;;11.47;79.68;94398.91;5062789;28;20036;-75
2022/11/08 05:46:10;;;;;;;50.95;29.70;;;;;;;11.52;79.74;94399.56;5062765;28;20074;-75
2022/11/08 05:48:35;;;;;;;64.38;31.98;;;;;;;11.56;79.67;94395.19;5062809;28;20017;-75
2022/11/08 05:51:01;;;;;;;56.25;28.98;;;;;;;11.60;79.62;94396.16;5062745;28;20294;-75
2022/11/08 05:53:27;;;;;;;56.38;31.20;;;;;;;11.66;79.37;94402.13;5062567;28;20370;-75
2022/11/08 05:55:59;;;;;;;54.22;30.63;;;;;;;11.71;79.28;94403.91;5062381;28;20023;-75
2022/11/08 05:58:25;;;;;;;56.63;29.27;;;;;;;11.70;79.44;94416.44;5062082;28;20036;-75
2022/11/08 06:00:58;;;;;;;63.72;37.03;;;;;;;11.69;79.13;94422.88;5062868;28;20256;-75
2022/11/08 06:03:24;;;;;;;62.53;34.30;;;;;;;11.67;79.39;94419.75;5062949;28;20039;-76
2022/11/08 06:05:49;;;;;;;64.38;33.92;;;;;;;11.65;79.12;94421.94;5066445;28;20021;-76
2022/11/08 06:08:15;;;;;;;70.85;33.72;;;;;;;11.61;79.57;94424.41;5066536;28;20028;-76
2022/11/08 06:10:40;;;;;;;60.53;31.92;;;;;;;11.60;79.58;94433.53;5066613;28;20323;-76
2022/11/08 06:13:05;;;;;;;58.83;31.00;;;;;;;11.56;79.85;94431.75;5066575;28;20025;-76
2022/11/08 06:15:31;;;;;;;59.05;30.50;;;;;;;11.52;80.32;94436.13;5066624;28;20366;-76
2022/11/08 06:18:01;;;;;;;66.75;31.17;;;;;;;11.49;80.62;94437.53;5066520;28;20238;-76
2022/11/08 06:20:27;;;;;;;64.60;33.78;;;;;;;11.45;80.44;94434.66;5066494;28;20025;-76
2022/11/08 06:22:54;;;;;;;69.10;35.05;;;;;;;11.46;80.62;94432.81;5066533;28;20021;-75
2022/11/08 06:25:19;;;;;;;65.25;34.60;;;;;;;11.45;80.71;94437.34;5066377;28;20032;-75
2022/11/08 06:27:45;;;;;;;86.35;41.35;;;;;;;11.42;80.83;94448.63;5066213;28;20307;-75
2022/11/08 06:30:11;;;;;;;76.43;43.13;;;;;;;11.42;80.80;94459.31;5066177;28;20028;-76
2022/11/08 06:32:36;;;;;;;78.97;41.25;;;;;;;11.45;80.79;94460.59;5066302;28;20150;-76
2022/11/08 06:35:05;;;;;;;79.22;42.67;;;;;;;11.44;81.28;94456.34;5066335;28;20035;-76
2022/11/08 06:37:31;;;;;;;93.75;54.40;;;;;;;11.41;81.71;94468.41;5065944;28;20059;-75
2022/11/08 06:39:57;;;;;;;78.22;39.08;;;;;;;11.41;81.90;94463.06;5066062;28;20040;-75
2022/11/08 06:42:23;;;;;;;78.65;38.92;;;;;;;11.42;81.64;94466.53;5066037;28;20025;-75
2022/11/08 06:44:48;;;;;;;62.83;36.35;;;;;;;11.42;81.63;94464.66;5066260;28;20048;-75
2022/11/08 06:47:14;;;;;;;72.07;38.05;;;;;;;11.41;81.46;94467.63;5065835;28;20097;-75
2022/11/08 06:49:39;;;;;;;64.85;33.95;;;;;;;11.42;81.34;94470.00;5066131;28;20056;-76
2022/11/08 06:52:05;;;;;;;62.22;34.20;;;;;;;11.44;81.03;94465.13;5065821;28;20067;-76
2022/11/08 06:54:30;;;;;;;59.83;32.78;;;;;;;11.52;80.48;94463.63;5065900;28;20016;-76
2022/11/08 06:56:59;;;;;;;66.65;34.47;;;;;;;11.57;80.55;94471.50;5065550;28;20041;-76
2022/11/08 06:59:24;;;;;;;64.53;35.63;;;;;;;11.65;80.41;94468.09;5065973;28;20029;-76
2022/11/08 07:01:50;;;;;;;67.03;32.53;;;;;;;11.73;80.15;94469.25;5065910;28;20023;-76
2022/11/08 07:04:15;;;;;;;62.28;31.92;;;;;;;11.82;79.61;94472.78;5065643;28;20104;-76
2022/11/08 07:06:41;;;;;;;56.05;32.80;;;;;;;11.91;79.35;94475.53;5065329;28;20028;-76
2022/11/08 07:09:06;;;;;;;68.75;34.30;;;;;;;11.99;79.14;94474.78;5065441;28;20024;-76
2022/11/08 07:11:32;;;;;;;57.80;31.83;;;;;;;12.08;79.04;94469.47;5065364;28;20035;-76
2022/11/08 07:13:57;;;;;;;57.88;30.80;;;;;;;12.13;78.73;94466.69;5064271;28;20033;-77
2022/11/08 07:16:23;;;;;;;55.83;30.88;;;;;;;12.21;78.68;94479.28;5064598;28;20025;-76
2022/11/08 07:18:50;;;;;;;57.63;29.58;;;;;;;12.24;78.31;94476.00;5065510;28;20028;-76
2022/11/08 07:21:15;;;;;;;52.33;27.80;;;;;;;12.28;77.68;94478.84;5065231;28;20096;-76
2022/11/08 07:23:41;;;;;;;51.75;28.40;;;;;;;12.34;77.36;94474.16;5065089;28;20455;-76
2022/11/08 07:26:07;;;;;;;60.92;28.42;;;;;;;12.37;76.90;94476.97;5064961;28;20048;-74
2022/11/08 07:28:33;;;;;;;53.17;28.83;;;;;;;12.35;76.59;94484.50;5065095;28;20082;-74
2022/11/08 07:31:01;;;;;;;49.53;27.88;;;;;;;12.38;76.47;94472.44;5065124;28;20327;-75
2022/11/08 07:33:27;;;;;;;54.63;28.00;;;;;;;12.41;75.66;94480.59;5064931;28;20092;-75
2022/11/08 07:35:53;;;;;;;55.72;27.48;;;;;;;12.43;75.15;94473.06;5064949;28;20028;-75
2022/11/08 07:38:19;;;;;;;55.20;28.25;;;;;;;12.48;74.76;94477.50;5064970;28;20024;-75
2022/11/08 07:40:45;;;;;;;48.33;27.30;;;;;;;12.52;74.81;94483.03;5064968;28;20067;-75
2022/11/08 07:43:10;;;;;;;49.90;26.67;;;;;;;12.54;74.32;94484.28;5065028;28;20024;-75
2022/11/08 07:45:36;;;;;;;55.63;27.70;;;;;;;12.54;74.19;94476.28;5065100;28;20027;-74
2022/11/08 07:48:05;;;;;;;56.13;28.25;;;;;;;12.54;75.14;94483.50;5064783;28;20096;-77
2022/11/08 07:50:31;;;;;;;53.42;28.17;;;;;;;12.55;75.40;94482.41;5064628;28;20029;-78
2022/11/08 07:52:57;;;;;;;50.40;28.10;;;;;;;12.59;74.95;94476.13;5063538;28;20082;-79
2022/11/08 07:55:26;;;;;;;49.20;29.77;;;;;;;12.52;75.51;94481.13;5064429;28;20041;-78
2022/11/08 07:58:00;;;;;;;56.97;29.77;;;;;;;12.53;75.34;94477.34;5064450;28;20036;-77
2022/11/08 08:00:25;;;;;;;49.80;25.98;;;;;;;12.53;75.75;94477.34;5064643;28;20341;-78
2022/11/08 08:02:56;;;;;;;67.00;29.23;;;;;;;12.54;75.98;94475.50;5064444;28;20025;-78
2022/11/08 08:05:22;;;;;;;55.38;28.17;;;;;;;12.56;76.20;94484.78;5064560;28;20081;-78
2022/11/08 08:07:48;;;;;;;48.38;26.25;;;;;;;12.48;76.10;94485.53;5064606;28;20218;-77
2022/11/08 08:10:17;;;;;;;59.38;30.70;;;;;;;12.45;76.21;94478.91;5064557;28;20088;-77
2022/11/08 08:12:42;;;;;;;53.42;27.42;;;;;;;12.39;76.59;94479.34;5064441;28;20024;-76
2022/11/08 08:15:08;;;;;;;49.05;26.85;;;;;;;12.32;76.67;94471.00;5064451;28;20135;-76
2022/11/08 08:17:33;;;;;;;47.28;26.67;;;;;;;12.31;76.87;94477.44;5064338;28;20017;-76
2022/11/08 08:19:58;;;;;;;55.45;27.77;;;;;;;12.35;77.66;94475.72;5064320;28;20080;-76
2022/11/08 08:22:24;;;;;;;48.00;26.02;;;;;;;12.35;77.96;94481.84;5064303;28;20028;-77
2022/11/08 08:24:49;;;;;;;55.10;27.08;;;;;;;12.33;77.84;94481.38;5064574;28;20028;-78
2022/11/08 08:27:15;;;;;;;43.05;23.40;;;;;;;12.29;78.26;94480.41;5062230;28;20054;-78
2022/11/08 08:29:41;;;;;;;46.92;24.10;;;;;;;12.29;77.98;94476.94;5064058;28;20082;-79
2022/11/08 08:32:06;;;;;;;37.45;22.55;;;;;;;12.38;77.83;94483.13;5063985;28;20028;-79
2022/11/08 08:34:31;;;;;;;43.38;23.08;;;;;;;12.38;77.35;94481.25;5062920;28;20021;-79
2022/11/08 08:36:57;;;;;;;39.72;21.90;;;;;;;12.41;77.59;94487.84;5063871;28;20025;-79
2022/11/08 08:39:22;;;;;;;41.42;20.88;;;;;;;12.43;77.68;94491.00;5064036;28;20020;-80
2022/11/08 08:41:48;;;;;;;43.75;22.83;;;;;;;12.42;77.21;94484.09;5063870;28;20346;-74
2022/11/08 08:44:13;;;;;;;45.08;22.48;;;;;;;12.45;76.84;94486.91;5064801;28;20029;-78
2022/11/08 08:46:39;;;;;;;36.65;22.02;;;;;;;12.46;76.79;94490.41;5063904;28;20097;-79
2022/11/08 08:49:04;;;;;;;39.70;22.45;;;;;;;12.49;77.19;94489.75;5063797;28;20029;-76
2022/11/08 08:51:30;;;;;;;43.33;22.20;;;;;;;12.54;77.42;94489.63;5063568;28;20092;-77
2022/11/08 08:53:57;;;;;;;38.38;20.65;;;;;;;12.58;76.76;94493.28;5063812;28;20303;-77
2022/11/08 08:56:22;;;;;;;44.92;22.02;;;;;;;12.53;77.12;94492.63;5063665;28;20248;-77
2022/11/08 08:58:50;;;;;;;33.20;18.30;;;;;;;12.53;77.73;94498.75;5063607;28;20040;-77
2022/11/08 09:01:16;;;;;;;45.28;23.90;;;;;;;12.56;77.54;94495.47;5063355;28;20103;-77
2022/11/08 09:03:41;;;;;;;38.00;21.15;;;;;;;12.65;77.94;94501.63;5063419;28;20259;-77
2022/11/08 09:06:07;;;;;;;35.30;21.05;;;;;;;12.69;76.85;94498.34;5063515;28;20096;-77
2022/11/08 09:08:32;;;;;;;35.45;20.35;;;;;;;12.65;77.06;94500.84;5063432;28;20025;-78
2022/11/08 09:11:00;;;;;;;33.28;19.60;;;;;;;12.69;77.05;94504.47;5063261;28;20071;-77
2022/11/08 09:13:27;;;;;;;39.78;21.75;;;;;;;12.70;77.34;94495.34;5063430;28;20096;-77
2022/11/08 09:15:53;;;;;;;36.65;20.30;;;;;;;12.68;77.24;94491.41;5063439;28;20044;-77
2022/11/08 09:18:19;;;;;;;45.15;23.33;;;;;;;12.71;76.98;94488.13;5063464;28;20214;-78
2022/11/08 09:20:46;;;;;;;39.70;20.75;;;;;;;12.75;76.86;94491.75;5063159;28;20025;-78
2022/11/08 09:23:12;;;;;;;44.28;22.30;;;;;;;12.83;77.06;94489.09;5062006;28;20273;-79
2022/11/08 09:25:38;;;;;;;42.33;23.05;;;;;;;12.89;76.69;94491.63;5063217;28;20213;-77
2022/11/08 09:28:04;;;;;;;35.60;19.95;;;;;;;12.98;76.43;94493.19;5062906;28;20032;-78
2022/11/08 09:30:30;;;;;;;39.40;20.65;;;;;;;13.03;76.05;94487.72;5062829;28;20531;-78
2022/11/08 09:32:55;;;;;;;35.13;20.10;;;;;;;13.10;74.84;94487.25;5063074;28;20024;-78
2022/11/08 09:35:21;;;;;;;39.03;20.27;;;;;;;13.03;74.43;94487.72;5063052;28;20133;-76
2022/11/08 09:37:47;;;;;;;42.63;22.85;;;;;;;13.08;74.81;94483.31;5062390;28;20017;-77
2022/11/08 09:40:36;;;;;;;35.88;20.52;;;;;;;13.15;75.31;94484.44;5062041;28;20028;-76
2022/11/08 09:43:25;;;;;;;47.80;22.13;;;;;;;13.15;74.26;94483.63;5062187;28;20048;-76
2022/11/08 09:45:52;;;;;;;30.98;19.63;;;;;;;13.16;74.72;94480.63;5062400;28;20083;-77
2022/11/08 09:48:32;;;;;;;35.92;19.90;;;;;;;13.21;73.54;94475.13;5062349;28;20092;-75
2022/11/08 09:51:04;;;;;;;37.17;18.80;;;;;;;13.14;73.23;94471.34;5062557;28;20319;-78
2022/11/08 09:53:56;;;;;;;34.30;18.83;;;;;;;13.16;73.82;94474.50;5062897;28;20319;-77
2022/11/08 09:56:36;;;;;;;32.58;19.40;;;;;;;13.10;74.23;94471.19;5062718;28;20215;-77
2022/11/08 09:59:07;;;;;;;38.70;19.42;;;;;;;13.11;74.48;94477.31;5062874;28;20029;-80
2022/11/08 10:01:35;;;;;;;40.20;19.27;;;;;;;13.15;74.54;94479.06;5061605;28;20087;-78
2022/11/08 10:04:05;;;;;;;39.97;20.10;;;;;;;13.18;74.58;94474.97;5062521;28;20033;-78
2022/11/08 10:06:55;;;;;;;32.80;18.75;;;;;;;13.16;74.85;94469.94;5062775;28;20311;-78
2022/11/08 10:09:58;;;;;;;35.03;20.33;;;;;;;13.24;74.33;94468.38;5062813;28;20029;-78
2022/11/08 10:12:32;;;;;;;32.67;18.63;;;;;;;13.23;73.43;94454.19;5062635;28;20017;-78
2022/11/08 10:14:58;;;;;;;29.85;17.65;;;;;;;13.28;73.64;94455.91;5062436;28;20071;-79
2022/11/08 10:17:32;;;;;;;27.13;17.27;;;;;;;13.35;71.96;94450.94;5062684;28;20199;-78
2022/11/08 10:20:25;;;;;;;40.42;17.52;;;;;;;13.34;71.81;94453.91;5062655;28;20100;-78
2022/11/08 10:23:04;;;;;;;38.38;18.08;;;;;;;13.48;71.82;94451.06;5062843;28;20066;-76
2022/11/08 10:25:43;;;;;;;35.15;19.83;;;;;;;13.59;70.38;94455.75;5062565;28;20217;-76
2022/11/08 10:28:22;;;;;;;28.20;16.52;;;;;;;13.61;69.60;94448.19;5062371;28;20083;-76
2022/11/08 10:30:50;;;;;;;26.40;16.17;;;;;;;13.74;68.09;94441.09;5062755;28;20211;-76
2022/11/08 10:33:28;;;;;;;30.45;17.38;;;;;;;13.78;68.60;94436.69;5062503;28;20327;-76
2022/11/08 10:36:10;;;;;;;42.30;19.73;;;;;;;13.89;68.56;94431.00;5062655;28;20025;-77
2022/11/08 10:38:43;;;;;;;28.58;17.73;;;;;;;14.01;68.06;94433.78;5062539;28;20092;-77
2022/11/08 10:41:24;;;;;;;31.83;16.83;;;;;;;14.15;67.91;94439.72;5062378;28;20032;-76
2022/11/08 10:44:02;;;;;;;34.10;17.85;;;;;;;14.21;66.65;94441.13;5062405;28;20333;-77
2022/11/08 10:46:36;;;;;;;30.95;17.02;;;;;;;14.21;66.19;94438.44;5062450;28;20025;-76
2022/11/08 10:49:15;;;;;;;36.90;17.88;;;;;;;14.22;66.30;94437.31;5062070;28;20327;-77
2022/11/08 10:51:43;;;;;;;31.55;18.10;;;;;;;14.36;66.51;94430.97;5064793;28;20337;-76
2022/11/08 10:54:40;;;;;;;33.75;17.75;;;;;;;14.52;66.58;94426.63;5065846;28;20043;-77
2022/11/08 10:57:07;;;;;;;34.88;18.27;;;;;;;14.64;64.40;94428.66;5065756;28;20049;-77
2022/11/08 10:59:32;;;;;;;33.22;17.85;;;;;;;14.55;64.56;94419.81;5065857;28;20044;-77
2022/11/08 11:01:59;;;;;;;33.05;19.58;;;;;;;14.57;64.14;94431.03;5065704;28;20318;-78
2022/11/08 11:04:28;;;;;;;36.20;18.02;;;;;;;14.50;64.75;94423.50;5065647;28;20013;-79
2022/11/08 11:06:53;;;;;;;33.03;17.30;;;;;;;14.66;64.91;94420.28;5065646;28;20024;-80
2022/11/08 11:09:21;;;;;;;28.98;17.17;;;;;;;14.82;64.99;94418.59;5064678;28;20192;-79
2022/11/08 11:11:56;;;;;;;36.15;20.02;;;;;;;14.99;65.01;94410.41;5065844;28;20020;-78
2022/11/08 11:14:22;;;;;;;37.58;17.58;;;;;;;15.18;64.14;94418.03;5065536;28;20023;-79
2022/11/08 11:16:54;;;;;;;33.72;17.85;;;;;;;15.32;63.05;94406.22;5065918;28;20084;-78
2022/11/08 11:19:19;;;;;;;30.55;18.52;;;;;;;15.40;61.92;94405.38;5065637;28;20029;-79
2022/11/08 11:21:52;;;;;;;28.63;17.10;;;;;;;15.47;62.02;94405.63;5064247;28;20123;-80
2022/11/08 11:24:19;;;;;;;34.25;17.48;;;;;;;15.52;61.49;94402.72;5065651;28;20020;-78
2022/11/08 11:26:47;;;;;;;28.00;16.25;;;;;;;15.51;60.04;94401.16;5065473;28;20028;-78
2022/11/08 11:29:17;;;;;;;32.85;16.30;;;;;;;15.39;59.41;94404.59;5065012;28;20032;-80
2022/11/08 11:31:46;;;;;;;34.05;17.27;;;;;;;15.34;59.97;94396.72;5065117;28;20063;-76
2022/11/08 11:34:17;;;;;;;29.15;16.15;;;;;;;15.36;60.05;94399.84;5063908;28;20235;-77
2022/11/08 11:36:52;;;;;;;30.70;18.58;;;;;;;15.41;60.23;94396.97;5064954;28;20099;-77
2022/11/08 11:39:48;;;;;;;28.05;15.27;;;;;;;15.48;60.26;94390.28;5065211;28;20024;-76
2022/11/08 11:42:23;;;;;;;36.63;17.77;;;;;;;15.56;60.00;94392.88;5064949;28;20016;-76